This is the latest recevied weather packets stored in our database for station/object WD0REW. If no packets are shown the sender has not sent any weather packets the latest 10 day(s).
| Time | Temp. | Humidity | Pressure | Rain* | Wind** | Luminosity | Snow |
|---|---|---|---|---|---|---|---|
| 1777752426 | 17.78° C | 35% | 1020.6 hPa | 0 mm | - | 669 W/m² | - |
| 1777752122 | 18.33° C | 38% | 1020.8 hPa | 0 mm | - | 135 W/m² | - |
| 1777751821 | 18.33° C | 36% | 1020.7 hPa | 0 mm | - | 569 W/m² | - |
| 1777751517 | 18.33° C | 36% | 1020.6 hPa | 0 mm | - | 698 W/m² | - |
| 1777751214 | 17.78° C | 37% | 1020.7 hPa | 0 mm | - | 712 W/m² | - |
| 1777750910 | 18.33° C | 35% | 1020.6 hPa | 0 mm | - | 785 W/m² | - |
| 1777750607 | 18.89° C | 39% | 1020.7 hPa | 0 mm | - | 258 W/m² | - |
| 1777750304 | 17.78° C | 40% | 1020.8 hPa | 0 mm | - | 829 W/m² | - |
| 1777749999 | 17.78° C | 36% | 1020.7 hPa | 0 mm | - | 743 W/m² | - |
| 1777749697 | 18.33° C | 37% | 1020.8 hPa | 0 mm | - | 836 W/m² | - |
| 1777749394 | 17.78° C | 43% | 1020.6 hPa | 0 mm | - | 879 W/m² | - |
| 1777749091 | 17.78° C | 41% | 1020.8 hPa | 0 mm | - | 816 W/m² | - |
| 1777748788 | 17.78° C | 39% | 1020.8 hPa | 0 mm | - | 807 W/m² | - |
| 1777748486 | 18.33° C | 39% | 1021 hPa | 0 mm | - | 827 W/m² | - |
| 1777748180 | 17.78° C | 38% | 1020.7 hPa | 0 mm | - | 836 W/m² | - |
| 1777747878 | 17.78° C | 42% | 1020.8 hPa | 0 mm | - | 711 W/m² | - |
| 1777747574 | 16.67° C | 43% | 1021 hPa | 0 mm | - | 873 W/m² | - |
| 1777747269 | 16.67° C | 39% | 1021.1 hPa | 0 mm | - | 165 W/m² | - |
| 1777746966 | 16.67° C | 41% | 1021 hPa | 0 mm | - | 884 W/m² | - |
| 1777746662 | 17.22° C | 40% | 1021.1 hPa | 0 mm | - | 206 W/m² | - |
| 1777746357 | 17.22° C | 39% | 1020.8 hPa | 0 mm | - | 402 W/m² | - |
| 1777746053 | 17.22° C | 43% | 1021 hPa | 0 mm | - | 905 W/m² | - |
| 1777745751 | 16.67° C | 40% | 1021 hPa | 0 mm | - | 875 W/m² | - |
| 1777745450 | 17.78° C | 40% | 1021 hPa | 0 mm | - | 167 W/m² | - |
| 1777745146 | 17.78° C | 38% | 1021.3 hPa | 0 mm | - | 184 W/m² | - |
* Rain latest hour (hover to see other rain measurements)
** Current wind speed in m/s (hover to see current wind gust speed)